»·PEaware :: N805RJ KDAG-KDLO

N805RJ :: KDAG-KDLO

FLIGHT INFORMATION

Flight Status: Arrived
Operator: Privately registered:
United States
More flights under this callsign
Pilot: Rickie J. (22768)
Aircraft: CESSNA 172 SKYHAWK
(C172)
More flights by this aircraft type
Origin: KDAG Barstow-Daggett
United States
Destination: KDLO Delano Mun
United States
More flights between these airports :: More routes between these airports
Route: NULMN V12 V197 EHF
File this flight plan on PilotEdge
Remarks:
Altitude:
(Current/Filed)
10,500ft
Speed:
(Current/Filed)
120kts
Departed: 11-Jul-20 08:01 AM
Arrived: 11-Jul-20 09:22 AM
Distance/Time
Traveled:
131nm/1:21
Distance/Time
To Go:
Arrived

Flight Plot

Page will automatically refresh every two minutes.

Flight plan parsing failed; only flown route is shown


Map Options




Map Legend


Flown Route
Filed Route
Departure Airport
Arrival Airport
Navaid (VOR, NDB)
Fix

Horizontal Profiles

Position Reports

Time Latitude Longitude Heading Altitude Ground
Speed
11-Jul-20 07:26 34.856424 -116.791217 92 1929ft 0kts
11-Jul-20 07:27 34.856424 -116.791217 92 1929ft 0kts
11-Jul-20 07:28 34.856424 -116.791217 92 1929ft 0kts
11-Jul-20 07:29 34.856424 -116.791217 92 1929ft 0kts
11-Jul-20 07:30 34.856424 -116.791217 91 1929ft 0kts
11-Jul-20 07:31 34.856424 -116.791217 92 1929ft 0kts
11-Jul-20 07:32 34.856424 -116.791217 92 1929ft 0kts
11-Jul-20 07:33 34.856424 -116.791217 92 1929ft 0kts
11-Jul-20 07:34 34.856424 -116.791217 92 1929ft 0kts
11-Jul-20 07:35 34.856424 -116.791217 92 1929ft 0kts
11-Jul-20 07:36 34.856424 -116.791217 92 1929ft 0kts
11-Jul-20 07:37 34.856424 -116.791217 92 1929ft 0kts
11-Jul-20 07:38 34.856424 -116.791217 92 1929ft 0kts
11-Jul-20 07:39 34.856424 -116.791217 92 1929ft 0kts
11-Jul-20 07:40 34.856424 -116.791217 92 1929ft 0kts
11-Jul-20 07:41 34.856424 -116.791217 92 1929ft 0kts
11-Jul-20 07:42 34.856424 -116.791217 92 1929ft 0kts
11-Jul-20 07:43 34.856424 -116.791217 92 1929ft 0kts
11-Jul-20 07:44 34.856424 -116.791217 92 1929ft 0kts
11-Jul-20 07:45 34.856424 -116.791217 92 1929ft 0kts
11-Jul-20 07:46 34.856424 -116.791217 92 1929ft 0kts
11-Jul-20 07:47 34.856403 -116.790961 114 1929ft 1kts
11-Jul-20 07:48 34.856075 -116.790811 180 1929ft 2kts
11-Jul-20 07:49 34.855277 -116.791086 207 1929ft 3kts
11-Jul-20 07:50 34.854160 -116.790363 142 1929ft 6kts
11-Jul-20 07:51 34.852670 -116.788841 139 1929ft 7kts
11-Jul-20 07:52 34.852548 -116.786094 88 1929ft 8kts
11-Jul-20 07:53 34.852553 -116.782977 89 1929ft 9kts
11-Jul-20 07:54 34.852551 -116.779705 89 1929ft 9kts
11-Jul-20 07:55 34.852507 -116.776620 130 1929ft 6kts
11-Jul-20 07:56 34.852323 -116.776545 181 1929ft 0kts
11-Jul-20 07:57 34.852323 -116.776545 181 1929ft 0kts
11-Jul-20 07:58 34.852323 -116.776545 181 1929ft 0kts
11-Jul-20 07:59 34.851861 -116.776543 178 1929ft 2kts
11-Jul-20 08:00 34.851430 -116.780707 269 1929ft 60kts
11-Jul-20 08:01 34.850824 -116.813794 266 2230ft 99kts
11-Jul-20 08:02 34.847357 -116.843824 266 2980ft 83kts
11-Jul-20 08:03 34.843897 -116.874181 265 3519ft 96kts
11-Jul-20 08:04 34.838885 -116.907282 234 4023ft 105kts
11-Jul-20 08:05 34.813930 -116.927856 218 4526ft 108kts
11-Jul-20 08:06 34.789390 -116.948859 231 5023ft 105kts
11-Jul-20 08:07 34.773888 -116.978461 243 5521ft 102kts
11-Jul-20 08:08 34.760971 -117.008788 241 6024ft 100kts
11-Jul-20 08:09 34.748600 -117.038242 240 6513ft 97kts
11-Jul-20 08:10 34.737605 -117.067610 255 6990ft 97kts
11-Jul-20 08:11 34.733634 -117.100633 258 7397ft 100kts
11-Jul-20 08:12 34.730295 -117.132899 259 7782ft 100kts
11-Jul-20 08:13 34.727101 -117.164086 258 8156ft 99kts
11-Jul-20 08:14 34.723846 -117.195487 258 8447ft 103kts
11-Jul-20 08:15 34.720358 -117.229482 257 8736ft 106kts
11-Jul-20 08:16 34.716715 -117.264575 257 9032ft 107kts
11-Jul-20 08:17 34.713035 -117.300021 257 9330ft 106kts
11-Jul-20 08:18 34.709359 -117.335334 257 9631ft 105kts
11-Jul-20 08:19 34.705661 -117.370411 257 9935ft 104kts
11-Jul-20 08:20 34.701999 -117.405119 257 10234ft 102kts
11-Jul-20 08:21 34.698365 -117.439584 256 10515ft 104kts
11-Jul-20 08:22 34.694337 -117.477692 257 10505ft 117kts
11-Jul-20 08:23 34.690158 -117.517647 257 10506ft 119kts
11-Jul-20 08:24 34.685909 -117.557883 257 10505ft 119kts
11-Jul-20 08:25 34.681639 -117.598192 257 10505ft 119kts
11-Jul-20 08:26 34.677849 -117.633793 257 10450ft 121kts
11-Jul-20 08:27 34.673948 -117.670497 257 10481ft 118kts
11-Jul-20 08:28 34.669587 -117.711196 257 10504ft 120kts
11-Jul-20 08:29 34.665241 -117.751702 257 10504ft 121kts
11-Jul-20 08:30 34.661012 -117.790954 256 10503ft 121kts
11-Jul-20 08:31 34.656882 -117.829154 256 10503ft 121kts
11-Jul-20 08:32 34.652740 -117.867339 256 10503ft 121kts
11-Jul-20 08:33 34.648261 -117.908506 256 10503ft 121kts
11-Jul-20 08:34 34.643899 -117.948476 256 10503ft 121kts
11-Jul-20 08:35 34.639514 -117.988528 256 10503ft 121kts
11-Jul-20 08:36 34.635147 -118.028323 256 10520ft 121kts
11-Jul-20 08:37 34.637686 -118.067618 299 10505ft 130kts
11-Jul-20 08:38 34.660694 -118.101165 306 10505ft 131kts
11-Jul-20 08:39 34.685127 -118.133680 307 10505ft 132kts
11-Jul-20 08:40 34.709718 -118.165828 307 10506ft 132kts
11-Jul-20 08:41 34.733973 -118.197440 307 10505ft 132kts
11-Jul-20 08:42 34.758916 -118.229955 307 10505ft 132kts
11-Jul-20 08:43 34.784113 -118.262811 307 10504ft 133kts
11-Jul-20 08:45 34.809176 -118.295528 307 10528ft 132kts
11-Jul-20 08:46 34.834543 -118.328692 307 10506ft 135kts
11-Jul-20 08:47 34.859762 -118.361680 307 10504ft 135kts
11-Jul-20 08:48 34.884855 -118.394529 307 10507ft 135kts
11-Jul-20 08:49 34.909980 -118.427445 307 10547ft 134kts
11-Jul-20 08:50 34.935511 -118.460941 307 10505ft 136kts
11-Jul-20 08:51 34.960799 -118.494141 307 10505ft 135kts
11-Jul-20 08:52 34.985822 -118.527025 307 10505ft 134kts
11-Jul-20 08:53 35.010852 -118.559952 307 10507ft 134kts
11-Jul-20 08:54 35.038142 -118.592520 312 10271ft 146kts
11-Jul-20 08:55 35.068308 -118.626435 312 9884ft 149kts
11-Jul-20 08:56 35.098008 -118.659813 312 9502ft 148kts
11-Jul-20 08:57 35.127102 -118.692467 312 9114ft 147kts
11-Jul-20 08:58 35.156721 -118.725462 312 8718ft 146kts
11-Jul-20 08:59 35.186070 -118.758578 311 8319ft 145kts
11-Jul-20 09:00 35.214915 -118.791594 313 7930ft 144kts
11-Jul-20 09:00 35.239004 -118.818840 313 7602ft 146kts
11-Jul-20 09:02 35.273314 -118.857636 314 7143ft 148kts
11-Jul-20 09:02 35.297345 -118.884835 314 6825ft 148kts
11-Jul-20 09:04 35.331114 -118.923086 315 6373ft 148kts
11-Jul-20 09:05 35.358752 -118.954328 315 6006ft 148kts
11-Jul-20 09:05 35.381978 -118.980699 315 5697ft 148kts
11-Jul-20 09:07 35.414545 -119.017716 315 5273ft 148kts
11-Jul-20 09:07 35.438582 -119.045062 316 4950ft 148kts
11-Jul-20 09:08 35.467758 -119.078292 316 4556ft 148kts
11-Jul-20 09:10 35.507482 -119.109577 335 4084ft 149kts
11-Jul-20 09:10 35.537949 -119.125809 336 3760ft 149kts
11-Jul-20 09:11 35.574134 -119.145162 336 3380ft 149kts
11-Jul-20 09:12 35.610772 -119.165977 332 2989ft 148kts
11-Jul-20 09:13 35.644578 -119.187218 332 2593ft 135kts
11-Jul-20 09:14 35.675864 -119.206745 332 2283ft 115kts
11-Jul-20 09:15 35.702658 -119.223278 332 1891ft 109kts
11-Jul-20 09:16 35.729083 -119.239307 332 1496ft 109kts
11-Jul-20 09:17 35.753609 -119.253970 332 1247ft 88kts
11-Jul-20 09:18 35.774388 -119.256521 55 971ft 81kts
11-Jul-20 09:19 35.762847 -119.244693 164 674ft 70kts
11-Jul-20 09:20 35.746875 -119.237126 159 316ft 46kts
11-Jul-20 09:21 35.745150 -119.236950 284 316ft 0kts
11-Jul-20 09:22 35.745297 -119.237548 285 316ft 4kts
11-Jul-20 09:23 35.745598 -119.239006 248 316ft 5kts
11-Jul-20 09:24 35.745514 -119.239097 57 316ft 0kts
11-Jul-20 09:25 35.745514 -119.239097 57 316ft 0kts
11-Jul-20 09:26 35.745514 -119.239097 57 316ft 0kts
11-Jul-20 09:27 35.745514 -119.239097 57 316ft 0kts

Navigation Log

Ident Type
Flight plan parsing failed, navigation log unavailable